sensor_id;sensor_type;location;lat;lon;timestamp;temperature;humidity
42135;DHT22;28312;43.460;11.810;2023-02-26T00:02:06;12.20;80.30
42135;DHT22;28312;43.460;11.810;2023-02-26T00:06:09;12.10;80.30
42135;DHT22;28312;43.460;11.810;2023-02-26T00:10:13;12.10;80.40
42135;DHT22;28312;43.460;11.810;2023-02-26T00:14:19;12.00;80.40
42135;DHT22;28312;43.460;11.810;2023-02-26T00:18:23;12.00;80.50
42135;DHT22;28312;43.460;11.810;2023-02-26T00:22:27;12.00;80.50
42135;DHT22;28312;43.460;11.810;2023-02-26T00:26:31;12.00;80.60
42135;DHT22;28312;43.460;11.810;2023-02-26T00:30:35;12.00;80.60
42135;DHT22;28312;43.460;11.810;2023-02-26T00:34:39;12.00;80.70
42135;DHT22;28312;43.460;11.810;2023-02-26T00:38:46;12.00;80.70
42135;DHT22;28312;43.460;11.810;2023-02-26T00:42:53;12.00;80.70
42135;DHT22;28312;43.460;11.810;2023-02-26T00:47:19;12.00;80.80
42135;DHT22;28312;43.460;11.810;2023-02-26T00:55:42;12.00;80.70
42135;DHT22;28312;43.460;11.810;2023-02-26T00:59:45;12.00;80.60
42135;DHT22;28312;43.460;11.810;2023-02-26T01:03:49;12.00;80.70
42135;DHT22;28312;43.460;11.810;2023-02-26T01:08:14;12.00;80.70
42135;DHT22;28312;43.460;11.810;2023-02-26T01:12:20;12.00;80.70
42135;DHT22;28312;43.460;11.810;2023-02-26T01:16:26;11.90;80.60
42135;DHT22;28312;43.460;11.810;2023-02-26T01:20:37;11.90;80.80
42135;DHT22;28312;43.460;11.810;2023-02-26T01:24:46;11.90;80.90
42135;DHT22;28312;43.460;11.810;2023-02-26T01:28:51;11.90;81.00
42135;DHT22;28312;43.460;11.810;2023-02-26T01:33:19;11.80;81.00
42135;DHT22;28312;43.460;11.810;2023-02-26T01:42:19;11.80;81.10
42135;DHT22;28312;43.460;11.810;2023-02-26T01:50:41;11.70;81.20
42135;DHT22;28312;43.460;11.810;2023-02-26T01:54:44;11.70;81.20
42135;DHT22;28312;43.460;11.810;2023-02-26T01:58:49;11.80;81.30
42135;DHT22;28312;43.460;11.810;2023-02-26T02:02:52;11.70;81.30
42135;DHT22;28312;43.460;11.810;2023-02-26T02:06:57;11.70;81.40
42135;DHT22;28312;43.460;11.810;2023-02-26T02:11:03;11.70;81.50
42135;DHT22;28312;43.460;11.810;2023-02-26T02:15:34;11.70;81.60
42135;DHT22;28312;43.460;11.810;2023-02-26T02:24:31;11.70;81.50
42135;DHT22;28312;43.460;11.810;2023-02-26T02:32:46;11.70;81.70
42135;DHT22;28312;43.460;11.810;2023-02-26T02:41:37;11.70;81.70
42135;DHT22;28312;43.460;11.810;2023-02-26T02:54:15;11.60;82.10
42135;DHT22;28312;43.460;11.810;2023-02-26T02:58:30;11.60;82.00
42135;DHT22;28312;43.460;11.810;2023-02-26T03:03:15;11.60;82.10
42135;DHT22;28312;43.460;11.810;2023-02-26T03:07:21;11.60;82.20
42135;DHT22;28312;43.460;11.810;2023-02-26T03:11:26;11.70;82.10
42135;DHT22;28312;43.460;11.810;2023-02-26T03:16:21;11.60;82.10
42135;DHT22;28312;43.460;11.810;2023-02-26T03:29:27;11.60;82.40
42135;DHT22;28312;43.460;11.810;2023-02-26T03:33:30;11.60;82.40
42135;DHT22;28312;43.460;11.810;2023-02-26T03:37:47;11.70;82.40
42135;DHT22;28312;43.460;11.810;2023-02-26T03:41:59;11.60;82.30
42135;DHT22;28312;43.460;11.810;2023-02-26T03:46:28;11.70;82.40
42135;DHT22;28312;43.460;11.810;2023-02-26T03:50:37;11.70;82.40
42135;DHT22;28312;43.460;11.810;2023-02-26T03:55:17;11.60;82.30
42135;DHT22;28312;43.460;11.810;2023-02-26T03:59:37;11.70;82.30
42135;DHT22;28312;43.460;11.810;2023-02-26T04:04:06;11.60;82.30
42135;DHT22;28312;43.460;11.810;2023-02-26T04:08:11;11.60;82.50
42135;DHT22;28312;43.460;11.810;2023-02-26T04:12:19;11.60;82.60
42135;DHT22;28312;43.460;11.810;2023-02-26T04:16:25;11.60;82.70
42135;DHT22;28312;43.460;11.810;2023-02-26T04:20:31;11.60;82.60
42135;DHT22;28312;43.460;11.810;2023-02-26T04:24:36;11.60;82.60
42135;DHT22;28312;43.460;11.810;2023-02-26T04:28:40;11.60;82.60
42135;DHT22;28312;43.460;11.810;2023-02-26T04:32:44;11.60;82.60
42135;DHT22;28312;43.460;11.810;2023-02-26T04:36:50;11.60;82.60
42135;DHT22;28312;43.460;11.810;2023-02-26T04:40:54;11.50;82.80
42135;DHT22;28312;43.460;11.810;2023-02-26T04:45:00;11.50;82.80
42135;DHT22;28312;43.460;11.810;2023-02-26T04:49:06;11.50;83.00
42135;DHT22;28312;43.460;11.810;2023-02-26T04:53:11;11.50;82.90
42135;DHT22;28312;43.460;11.810;2023-02-26T04:57:15;11.50;82.90
42135;DHT22;28312;43.460;11.810;2023-02-26T05:01:19;11.50;83.00
42135;DHT22;28312;43.460;11.810;2023-02-26T05:05:23;11.50;83.10
42135;DHT22;28312;43.460;11.810;2023-02-26T05:09:27;11.40;83.20
42135;DHT22;28312;43.460;11.810;2023-02-26T05:13:30;11.50;83.30
42135;DHT22;28312;43.460;11.810;2023-02-26T05:17:37;11.40;83.40
42135;DHT22;28312;43.460;11.810;2023-02-26T05:21:41;11.50;83.40
42135;DHT22;28312;43.460;11.810;2023-02-26T05:25:46;11.50;83.40
42135;DHT22;28312;43.460;11.810;2023-02-26T05:29:50;11.50;83.50
42135;DHT22;28312;43.460;11.810;2023-02-26T05:33:53;11.40;83.60
42135;DHT22;28312;43.460;11.810;2023-02-26T05:37:57;11.40;83.70
42135;DHT22;28312;43.460;11.810;2023-02-26T05:42:00;11.40;83.90
42135;DHT22;28312;43.460;11.810;2023-02-26T05:46:04;11.30;84.20
42135;DHT22;28312;43.460;11.810;2023-02-26T05:50:08;11.30;84.40
42135;DHT22;28312;43.460;11.810;2023-02-26T05:54:12;11.30;84.60
42135;DHT22;28312;43.460;11.810;2023-02-26T05:58:16;11.30;84.70
42135;DHT22;28312;43.460;11.810;2023-02-26T06:02:20;11.20;84.70
42135;DHT22;28312;43.460;11.810;2023-02-26T06:06:24;11.30;84.90
42135;DHT22;28312;43.460;11.810;2023-02-26T06:10:29;11.20;85.10
42135;DHT22;28312;43.460;11.810;2023-02-26T06:14:33;11.20;85.20
42135;DHT22;28312;43.460;11.810;2023-02-26T06:18:38;11.20;85.30
42135;DHT22;28312;43.460;11.810;2023-02-26T06:22:41;11.20;85.30
42135;DHT22;28312;43.460;11.810;2023-02-26T06:26:45;11.20;85.40
42135;DHT22;28312;43.460;11.810;2023-02-26T06:30:51;11.20;85.40
42135;DHT22;28312;43.460;11.810;2023-02-26T06:34:55;11.20;85.60
42135;DHT22;28312;43.460;11.810;2023-02-26T06:39:00;11.20;85.70
42135;DHT22;28312;43.460;11.810;2023-02-26T06:43:03;11.10;85.80
42135;DHT22;28312;43.460;11.810;2023-02-26T06:47:07;11.20;85.90
42135;DHT22;28312;43.460;11.810;2023-02-26T06:51:10;11.20;86.00
42135;DHT22;28312;43.460;11.810;2023-02-26T06:55:14;11.20;86.00
42135;DHT22;28312;43.460;11.810;2023-02-26T06:59:18;11.20;86.20
42135;DHT22;28312;43.460;11.810;2023-02-26T07:03:22;11.20;86.30
42135;DHT22;28312;43.460;11.810;2023-02-26T07:07:26;11.20;86.40
42135;DHT22;28312;43.460;11.810;2023-02-26T07:11:30;11.20;86.50
42135;DHT22;28312;43.460;11.810;2023-02-26T07:15:34;11.20;86.60
42135;DHT22;28312;43.460;11.810;2023-02-26T07:19:37;11.20;86.70
42135;DHT22;28312;43.460;11.810;2023-02-26T07:23:41;11.20;86.70
42135;DHT22;28312;43.460;11.810;2023-02-26T07:27:44;11.20;86.80
42135;DHT22;28312;43.460;11.810;2023-02-26T07:31:48;11.30;86.80
42135;DHT22;28312;43.460;11.810;2023-02-26T07:35:53;11.30;87.00
42135;DHT22;28312;43.460;11.810;2023-02-26T07:39:56;11.30;86.90
42135;DHT22;28312;43.460;11.810;2023-02-26T07:44:00;11.00;85.60
42135;DHT22;28312;43.460;11.810;2023-02-26T07:48:04;10.50;85.10
42135;DHT22;28312;43.460;11.810;2023-02-26T07:52:08;10.00;85.40
42135;DHT22;28312;43.460;11.810;2023-02-26T07:56:11;9.60;85.70
42135;DHT22;28312;43.460;11.810;2023-02-26T08:00:15;9.30;85.90
42135;DHT22;28312;43.460;11.810;2023-02-26T08:04:19;9.10;86.10
42135;DHT22;28312;43.460;11.810;2023-02-26T08:08:23;8.80;86.30
42135;DHT22;28312;43.460;11.810;2023-02-26T08:12:26;8.70;86.40
42135;DHT22;28312;43.460;11.810;2023-02-26T08:16:30;8.60;86.70
42135;DHT22;28312;43.460;11.810;2023-02-26T08:20:34;8.50;86.90
42135;DHT22;28312;43.460;11.810;2023-02-26T08:24:38;8.40;86.90
42135;DHT22;28312;43.460;11.810;2023-02-26T08:28:47;8.30;86.90
42135;DHT22;28312;43.460;11.810;2023-02-26T08:32:50;8.20;87.30
42135;DHT22;28312;43.460;11.810;2023-02-26T08:36:54;8.00;87.40
42135;DHT22;28312;43.460;11.810;2023-02-26T08:40:57;8.00;87.60
42135;DHT22;28312;43.460;11.810;2023-02-26T08:45:04;7.90;87.70
42135;DHT22;28312;43.460;11.810;2023-02-26T08:49:08;7.80;87.70
42135;DHT22;28312;43.460;11.810;2023-02-26T08:53:12;7.70;87.90
42135;DHT22;28312;43.460;11.810;2023-02-26T08:57:15;7.70;88.10
42135;DHT22;28312;43.460;11.810;2023-02-26T09:01:19;7.60;88.10
42135;DHT22;28312;43.460;11.810;2023-02-26T09:05:23;7.60;88.10
42135;DHT22;28312;43.460;11.810;2023-02-26T09:09:26;7.40;88.10
42135;DHT22;28312;43.460;11.810;2023-02-26T09:13:29;7.40;88.40
42135;DHT22;28312;43.460;11.810;2023-02-26T09:17:34;7.40;88.40
42135;DHT22;28312;43.460;11.810;2023-02-26T09:21:37;7.30;88.40
42135;DHT22;28312;43.460;11.810;2023-02-26T09:25:41;7.20;88.40
42135;DHT22;28312;43.460;11.810;2023-02-26T09:29:45;7.20;88.40
42135;DHT22;28312;43.460;11.810;2023-02-26T09:33:48;7.10;88.50
42135;DHT22;28312;43.460;11.810;2023-02-26T09:37:52;7.00;88.40
42135;DHT22;28312;43.460;11.810;2023-02-26T09:41:58;7.00;88.60
42135;DHT22;28312;43.460;11.810;2023-02-26T09:46:09;6.90;88.80
42135;DHT22;28312;43.460;11.810;2023-02-26T09:50:25;6.90;88.60
42135;DHT22;28312;43.460;11.810;2023-02-26T09:54:38;6.80;88.70
42135;DHT22;28312;43.460;11.810;2023-02-26T09:58:44;6.80;88.70
42135;DHT22;28312;43.460;11.810;2023-02-26T10:11:45;6.70;88.90
42135;DHT22;28312;43.460;11.810;2023-02-26T10:15:51;6.60;88.90
42135;DHT22;28312;43.460;11.810;2023-02-26T10:20:02;6.60;89.00
42135;DHT22;28312;43.460;11.810;2023-02-26T10:24:41;6.50;89.00
42135;DHT22;28312;43.460;11.810;2023-02-26T10:33:26;6.40;89.20
42135;DHT22;28312;43.460;11.810;2023-02-26T10:37:57;6.40;89.00
42135;DHT22;28312;43.460;11.810;2023-02-26T10:42:07;6.20;89.00
42135;DHT22;28312;43.460;11.810;2023-02-26T10:50:23;6.20;89.20
42135;DHT22;28312;43.460;11.810;2023-02-26T10:54:33;6.20;89.20
42135;DHT22;28312;43.460;11.810;2023-02-26T10:58:38;6.10;89.10
42135;DHT22;28312;43.460;11.810;2023-02-26T11:02:47;6.00;89.10
42135;DHT22;28312;43.460;11.810;2023-02-26T11:06:58;6.00;89.20
42135;DHT22;28312;43.460;11.810;2023-02-26T11:11:04;6.00;89.40
42135;DHT22;28312;43.460;11.810;2023-02-26T11:15:21;5.90;89.40
42135;DHT22;28312;43.460;11.810;2023-02-26T11:19:40;5.90;89.40
42135;DHT22;28312;43.460;11.810;2023-02-26T11:23:53;5.90;89.40
42135;DHT22;28312;43.460;11.810;2023-02-26T11:28:20;5.80;89.50
42135;DHT22;28312;43.460;11.810;2023-02-26T11:32:32;5.80;89.60
42135;DHT22;28312;43.460;11.810;2023-02-26T11:36:39;5.80;89.70
42135;DHT22;28312;43.460;11.810;2023-02-26T11:40:46;5.80;89.70
42135;DHT22;28312;43.460;11.810;2023-02-26T11:44:51;5.80;89.50
42135;DHT22;28312;43.460;11.810;2023-02-26T11:48:57;5.80;89.60
42135;DHT22;28312;43.460;11.810;2023-02-26T11:53:09;5.80;89.70
42135;DHT22;28312;43.460;11.810;2023-02-26T11:57:25;5.80;89.80
42135;DHT22;28312;43.460;11.810;2023-02-26T12:01:29;5.70;89.70
42135;DHT22;28312;43.460;11.810;2023-02-26T12:05:33;5.70;89.70
42135;DHT22;28312;43.460;11.810;2023-02-26T12:09:38;5.70;89.70
42135;DHT22;28312;43.460;11.810;2023-02-26T12:22:49;5.70;89.70
42135;DHT22;28312;43.460;11.810;2023-02-26T12:31:44;5.70;89.70
42135;DHT22;28312;43.460;11.810;2023-02-26T12:53:34;5.70;89.70
42135;DHT22;28312;43.460;11.810;2023-02-26T13:11:46;5.70;89.80
42135;DHT22;28312;43.460;11.810;2023-02-26T13:20:15;5.70;89.90
42135;DHT22;28312;43.460;11.810;2023-02-26T13:24:22;5.70;90.00
42135;DHT22;28312;43.460;11.810;2023-02-26T13:32:45;5.80;90.20
42135;DHT22;28312;43.460;11.810;2023-02-26T13:36:50;5.80;90.40
42135;DHT22;28312;43.460;11.810;2023-02-26T13:41:20;5.90;90.40
42135;DHT22;28312;43.460;11.810;2023-02-26T13:50:00;6.10;90.40
42135;DHT22;28312;43.460;11.810;2023-02-26T14:02:43;6.10;90.40
42135;DHT22;28312;43.460;11.810;2023-02-26T14:06:58;6.10;90.40
42135;DHT22;28312;43.460;11.810;2023-02-26T14:11:03;6.20;90.20
42135;DHT22;28312;43.460;11.810;2023-02-26T14:15:17;6.20;90.20
42135;DHT22;28312;43.460;11.810;2023-02-26T14:19:27;6.20;90.30
42135;DHT22;28312;43.460;11.810;2023-02-26T14:23:36;6.20;90.10
42135;DHT22;28312;43.460;11.810;2023-02-26T14:27:42;6.10;90.00
42135;DHT22;28312;43.460;11.810;2023-02-26T14:31:53;6.10;90.00
42135;DHT22;28312;43.460;11.810;2023-02-26T14:36:20;6.00;89.80
42135;DHT22;28312;43.460;11.810;2023-02-26T14:40:37;5.90;89.70
42135;DHT22;28312;43.460;11.810;2023-02-26T14:44:48;5.90;89.60
42135;DHT22;28312;43.460;11.810;2023-02-26T14:48:53;5.80;89.50
42135;DHT22;28312;43.460;11.810;2023-02-26T14:57:39;5.80;90.00
42135;DHT22;28312;43.460;11.810;2023-02-26T15:01:52;5.80;90.20
42135;DHT22;28312;43.460;11.810;2023-02-26T15:10:29;5.80;90.30
42135;DHT22;28312;43.460;11.810;2023-02-26T15:19:08;5.80;90.40
42135;DHT22;28312;43.460;11.810;2023-02-26T15:27:38;5.90;90.20
42135;DHT22;28312;43.460;11.810;2023-02-26T15:31:50;5.90;90.00
42135;DHT22;28312;43.460;11.810;2023-02-26T15:35:57;5.80;89.80
42135;DHT22;28312;43.460;11.810;2023-02-26T15:40:05;5.70;89.70
42135;DHT22;28312;43.460;11.810;2023-02-26T15:44:14;5.70;89.60
42135;DHT22;28312;43.460;11.810;2023-02-26T15:48:19;5.60;89.70
42135;DHT22;28312;43.460;11.810;2023-02-26T15:52:26;5.60;89.70
42135;DHT22;28312;43.460;11.810;2023-02-26T15:56:35;5.50;89.70
42135;DHT22;28312;43.460;11.810;2023-02-26T16:00:41;5.50;89.60
42135;DHT22;28312;43.460;11.810;2023-02-26T16:04:45;5.40;89.60
42135;DHT22;28312;43.460;11.810;2023-02-26T16:08:49;5.40;89.60
42135;DHT22;28312;43.460;11.810;2023-02-26T16:12:53;5.30;89.50
42135;DHT22;28312;43.460;11.810;2023-02-26T16:16:58;5.30;89.30
42135;DHT22;28312;43.460;11.810;2023-02-26T16:21:03;5.20;89.20
42135;DHT22;28312;43.460;11.810;2023-02-26T16:29:54;5.10;89.10
42135;DHT22;28312;43.460;11.810;2023-02-26T16:34:04;5.00;89.10
42135;DHT22;28312;43.460;11.810;2023-02-26T16:38:24;5.00;89.10
42135;DHT22;28312;43.460;11.810;2023-02-26T16:42:45;5.00;89.20
42135;DHT22;28312;43.460;11.810;2023-02-26T16:46:49;5.00;89.20
42135;DHT22;28312;43.460;11.810;2023-02-26T16:51:09;4.90;89.00
42135;DHT22;28312;43.460;11.810;2023-02-26T16:55:15;4.90;89.00
42135;DHT22;28312;43.460;11.810;2023-02-26T16:59:23;4.80;88.90
42135;DHT22;28312;43.460;11.810;2023-02-26T17:03:29;4.90;88.90
42135;DHT22;28312;43.460;11.810;2023-02-26T17:07:34;4.90;88.90
42135;DHT22;28312;43.460;11.810;2023-02-26T17:11:40;4.80;89.10
42135;DHT22;28312;43.460;11.810;2023-02-26T17:15:46;4.80;89.20
42135;DHT22;28312;43.460;11.810;2023-02-26T17:19:51;4.80;89.30
42135;DHT22;28312;43.460;11.810;2023-02-26T17:23:57;4.80;89.40
42135;DHT22;28312;43.460;11.810;2023-02-26T17:28:05;4.80;89.40
42135;DHT22;28312;43.460;11.810;2023-02-26T17:32:16;4.80;89.50
42135;DHT22;28312;43.460;11.810;2023-02-26T17:36:20;4.90;89.60
42135;DHT22;28312;43.460;11.810;2023-02-26T17:40:33;4.90;89.60
42135;DHT22;28312;43.460;11.810;2023-02-26T17:44:42;4.90;89.50
42135;DHT22;28312;43.460;11.810;2023-02-26T17:48:47;4.90;89.60
42135;DHT22;28312;43.460;11.810;2023-02-26T17:52:52;4.90;89.60
42135;DHT22;28312;43.460;11.810;2023-02-26T17:56:57;4.90;89.50
42135;DHT22;28312;43.460;11.810;2023-02-26T18:01:02;4.90;89.50
42135;DHT22;28312;43.460;11.810;2023-02-26T18:05:08;5.00;89.50
42135;DHT22;28312;43.460;11.810;2023-02-26T18:09:13;5.00;89.50
42135;DHT22;28312;43.460;11.810;2023-02-26T18:13:19;5.00;89.40
42135;DHT22;28312;43.460;11.810;2023-02-26T18:17:25;5.00;89.40
42135;DHT22;28312;43.460;11.810;2023-02-26T18:21:31;5.00;89.50
42135;DHT22;28312;43.460;11.810;2023-02-26T18:25:35;5.00;89.60
42135;DHT22;28312;43.460;11.810;2023-02-26T18:29:41;5.00;89.70
42135;DHT22;28312;43.460;11.810;2023-02-26T18:33:45;5.10;89.70
42135;DHT22;28312;43.460;11.810;2023-02-26T18:37:52;5.00;89.70
42135;DHT22;28312;43.460;11.810;2023-02-26T18:41:56;5.00;89.70
42135;DHT22;28312;43.460;11.810;2023-02-26T18:46:02;5.10;89.70
42135;DHT22;28312;43.460;11.810;2023-02-26T18:50:10;5.10;89.80
42135;DHT22;28312;43.460;11.810;2023-02-26T18:54:17;5.10;89.90
42135;DHT22;28312;43.460;11.810;2023-02-26T18:58:21;5.20;90.00
42135;DHT22;28312;43.460;11.810;2023-02-26T19:02:25;5.30;89.90
42135;DHT22;28312;43.460;11.810;2023-02-26T19:06:31;5.40;89.80
42135;DHT22;28312;43.460;11.810;2023-02-26T19:10:37;5.40;89.60
42135;DHT22;28312;43.460;11.810;2023-02-26T19:14:44;5.50;89.50
42135;DHT22;28312;43.460;11.810;2023-02-26T19:18:49;5.50;89.40
42135;DHT22;28312;43.460;11.810;2023-02-26T19:22:54;5.50;89.30
42135;DHT22;28312;43.460;11.810;2023-02-26T19:26:58;5.50;89.40
42135;DHT22;28312;43.460;11.810;2023-02-26T19:31:03;5.50;89.50
42135;DHT22;28312;43.460;11.810;2023-02-26T19:35:09;5.50;89.50
42135;DHT22;28312;43.460;11.810;2023-02-26T19:39:15;5.50;89.60
42135;DHT22;28312;43.460;11.810;2023-02-26T19:43:19;5.50;89.70
42135;DHT22;28312;43.460;11.810;2023-02-26T19:47:23;5.50;89.70
42135;DHT22;28312;43.460;11.810;2023-02-26T19:51:27;5.60;89.70
42135;DHT22;28312;43.460;11.810;2023-02-26T19:55:32;5.60;89.50
42135;DHT22;28312;43.460;11.810;2023-02-26T19:59:37;5.70;89.40
42135;DHT22;28312;43.460;11.810;2023-02-26T20:03:43;5.70;89.30
42135;DHT22;28312;43.460;11.810;2023-02-26T20:07:52;5.70;89.40
42135;DHT22;28312;43.460;11.810;2023-02-26T20:12:07;5.70;89.40
42135;DHT22;28312;43.460;11.810;2023-02-26T20:16:14;5.70;89.20
42135;DHT22;28312;43.460;11.810;2023-02-26T20:20:19;5.70;89.20
42135;DHT22;28312;43.460;11.810;2023-02-26T20:24:22;5.70;89.20
42135;DHT22;28312;43.460;11.810;2023-02-26T20:28:26;5.70;89.10
42135;DHT22;28312;43.460;11.810;2023-02-26T20:32:30;5.70;89.00
42135;DHT22;28312;43.460;11.810;2023-02-26T20:36:34;5.70;89.00
42135;DHT22;28312;43.460;11.810;2023-02-26T20:40:38;5.80;89.00
42135;DHT22;28312;43.460;11.810;2023-02-26T20:44:42;5.70;88.90
42135;DHT22;28312;43.460;11.810;2023-02-26T20:48:47;5.70;88.90
42135;DHT22;28312;43.460;11.810;2023-02-26T20:52:52;5.80;88.80
42135;DHT22;28312;43.460;11.810;2023-02-26T20:57:00;5.80;88.70
42135;DHT22;28312;43.460;11.810;2023-02-26T21:01:05;5.90;88.40
42135;DHT22;28312;43.460;11.810;2023-02-26T21:05:11;5.90;88.10
42135;DHT22;28312;43.460;11.810;2023-02-26T21:09:15;5.90;87.80
42135;DHT22;28312;43.460;11.810;2023-02-26T21:13:19;5.90;87.60
42135;DHT22;28312;43.460;11.810;2023-02-26T21:17:24;5.90;87.20
42135;DHT22;28312;43.460;11.810;2023-02-26T21:21:28;5.90;86.90
42135;DHT22;28312;43.460;11.810;2023-02-26T21:25:32;5.90;86.80
42135;DHT22;28312;43.460;11.810;2023-02-26T21:29:36;5.90;86.80
42135;DHT22;28312;43.460;11.810;2023-02-26T21:33:40;5.90;86.60
42135;DHT22;28312;43.460;11.810;2023-02-26T21:37:44;5.90;86.90
42135;DHT22;28312;43.460;11.810;2023-02-26T21:41:49;5.90;86.70
42135;DHT22;28312;43.460;11.810;2023-02-26T21:45:55;6.00;86.80
42135;DHT22;28312;43.460;11.810;2023-02-26T21:49:59;6.00;86.70
42135;DHT22;28312;43.460;11.810;2023-02-26T21:54:05;6.00;86.30
42135;DHT22;28312;43.460;11.810;2023-02-26T21:58:10;6.00;86.10
42135;DHT22;28312;43.460;11.810;2023-02-26T22:02:16;6.00;86.10
42135;DHT22;28312;43.460;11.810;2023-02-26T22:06:22;6.10;86.10
42135;DHT22;28312;43.460;11.810;2023-02-26T22:10:27;6.10;85.80
42135;DHT22;28312;43.460;11.810;2023-02-26T22:14:33;6.20;85.60
42135;DHT22;28312;43.460;11.810;2023-02-26T22:18:38;6.10;85.80
42135;DHT22;28312;43.460;11.810;2023-02-26T22:22:44;6.10;85.80
42135;DHT22;28312;43.460;11.810;2023-02-26T22:26:49;6.10;86.20
42135;DHT22;28312;43.460;11.810;2023-02-26T22:30:54;6.10;86.30
42135;DHT22;28312;43.460;11.810;2023-02-26T22:34:58;6.20;86.40
42135;DHT22;28312;43.460;11.810;2023-02-26T22:39:02;6.20;86.20
42135;DHT22;28312;43.460;11.810;2023-02-26T22:43:08;6.20;86.20
42135;DHT22;28312;43.460;11.810;2023-02-26T22:47:12;6.20;86.20
42135;DHT22;28312;43.460;11.810;2023-02-26T22:51:16;6.20;86.40
42135;DHT22;28312;43.460;11.810;2023-02-26T22:55:19;6.20;86.40
42135;DHT22;28312;43.460;11.810;2023-02-26T22:59:23;6.20;86.40
42135;DHT22;28312;43.460;11.810;2023-02-26T23:03:28;6.20;86.40
42135;DHT22;28312;43.460;11.810;2023-02-26T23:07:32;6.20;86.30
42135;DHT22;28312;43.460;11.810;2023-02-26T23:11:35;6.20;86.40
42135;DHT22;28312;43.460;11.810;2023-02-26T23:15:39;6.20;86.50
42135;DHT22;28312;43.460;11.810;2023-02-26T23:19:42;6.20;86.30
42135;DHT22;28312;43.460;11.810;2023-02-26T23:23:47;6.20;86.30
42135;DHT22;28312;43.460;11.810;2023-02-26T23:27:50;6.30;86.30
42135;DHT22;28312;43.460;11.810;2023-02-26T23:31:54;6.30;86.20
42135;DHT22;28312;43.460;11.810;2023-02-26T23:35:58;6.30;86.00
42135;DHT22;28312;43.460;11.810;2023-02-26T23:40:03;6.30;86.00
42135;DHT22;28312;43.460;11.810;2023-02-26T23:44:07;6.30;85.80
42135;DHT22;28312;43.460;11.810;2023-02-26T23:48:11;6.30;86.10
42135;DHT22;28312;43.460;11.810;2023-02-26T23:52:14;6.40;86.00
42135;DHT22;28312;43.460;11.810;2023-02-26T23:56:18;6.40;86.20
